createdAt,value
2022-12-28T00:01:41.084Z,24.73
2022-12-28T00:04:14.904Z,24.46
2022-12-28T00:06:46.603Z,24.19
2022-12-28T00:09:16.668Z,24.13
2022-12-28T00:11:47.255Z,24.00
2022-12-28T00:14:17.335Z,23.77
2022-12-28T00:16:47.894Z,23.78
2022-12-28T00:19:18.924Z,24.23
2022-12-28T00:21:49.781Z,24.36
2022-12-28T00:24:25.646Z,24.35
2022-12-28T00:26:58.209Z,24.35
2022-12-28T00:29:28.996Z,24.26
2022-12-28T00:32:00.735Z,24.15
2022-12-28T00:34:30.867Z,24.29
2022-12-28T00:37:11.093Z,24.28
2022-12-28T00:39:44.272Z,24.19
2022-12-28T00:42:17.607Z,24.19
2022-12-28T00:44:48.114Z,24.30
2022-12-28T00:47:19.128Z,24.27
2022-12-28T00:49:49.762Z,24.00
2022-12-28T00:52:19.440Z,24.00
2022-12-28T00:54:49.217Z,23.93
2022-12-28T00:57:19.711Z,23.58
2022-12-28T00:59:49.237Z,23.54
2022-12-28T01:02:19.804Z,23.44
2022-12-28T01:04:51.901Z,23.36
2022-12-28T01:07:22.465Z,23.34
2022-12-28T01:09:51.992Z,23.34
2022-12-28T01:12:22.389Z,23.22
2022-12-28T01:14:51.947Z,23.20
2022-12-28T01:17:21.951Z,23.20
2022-12-28T01:19:54.127Z,22.94
2022-12-28T01:22:24.578Z,22.91
2022-12-28T01:24:55.433Z,22.84
2022-12-28T01:27:25.509Z,22.83
2022-12-28T01:29:57.036Z,22.79
2022-12-28T01:32:26.589Z,22.60
2022-12-28T01:34:56.363Z,22.60
2022-12-28T01:37:26.860Z,22.49
2022-12-28T01:39:56.740Z,22.58
2022-12-28T01:42:29.256Z,22.64
2022-12-28T01:45:00.830Z,22.61
2022-12-28T01:47:36.500Z,22.55
2022-12-28T01:50:11.889Z,22.60
2022-12-28T01:53:12.610Z,22.48
2022-12-28T01:55:43.803Z,22.66
2022-12-28T01:58:22.374Z,22.55
2022-12-28T02:00:55.874Z,22.39
2022-12-28T02:03:30.934Z,22.52
2022-12-28T02:06:05.858Z,22.79
2022-12-28T02:09:11.206Z,22.83
2022-12-28T02:11:42.496Z,22.69
2022-12-28T02:14:16.192Z,22.67
2022-12-28T02:16:46.378Z,22.98
2022-12-28T02:19:23.201Z,23.09
2022-12-28T02:22:30.495Z,23.18
2022-12-28T02:25:21.691Z,23.23
2022-12-28T02:28:09.687Z,23.22
2022-12-28T02:30:54.507Z,23.29
2022-12-28T02:33:36.798Z,22.76
2022-12-28T02:36:18.778Z,22.61
2022-12-28T02:38:55.268Z,22.79
2022-12-28T02:41:31.384Z,22.78
2022-12-28T02:44:02.686Z,22.66
2022-12-28T02:46:53.954Z,22.58
2022-12-28T02:49:47.385Z,22.60
2022-12-28T02:52:17.849Z,22.78
2022-12-28T02:55:40.465Z,22.99
2022-12-28T02:58:51.892Z,23.02
2022-12-28T03:01:39.694Z,22.91
2022-12-28T03:04:28.410Z,23.06
2022-12-28T03:07:37.562Z,22.91
2022-12-28T03:10:33.151Z,22.65
2022-12-28T03:13:34.202Z,22.73
2022-12-28T03:16:13.758Z,22.73
2022-12-28T03:19:05.610Z,22.70
2022-12-28T03:21:56.287Z,22.69
2022-12-28T03:24:48.251Z,22.79
2022-12-28T03:27:41.128Z,22.68
2022-12-28T03:30:40.079Z,22.51
2022-12-28T03:33:13.829Z,22.49
2022-12-28T03:36:00.311Z,22.63
2022-12-28T03:39:11.228Z,22.56
2022-12-28T03:42:21.509Z,22.37
2022-12-28T03:44:58.936Z,22.85
2022-12-28T03:47:33.422Z,23.01
2022-12-28T03:50:03.806Z,23.16
2022-12-28T03:52:36.387Z,23.20
2022-12-28T03:55:08.447Z,23.14
2022-12-28T03:57:38.912Z,23.19
2022-12-28T04:00:14.034Z,23.29
2022-12-28T04:02:49.644Z,23.23
2022-12-28T04:05:22.586Z,23.22
2022-12-28T04:07:53.857Z,23.11
2022-12-28T04:10:26.745Z,23.18
2022-12-28T04:12:58.167Z,23.10
2022-12-28T04:16:01.137Z,23.01
2022-12-28T04:18:34.179Z,23.06
2022-12-28T04:21:04.753Z,23.12
2022-12-28T04:23:35.983Z,23.05
2022-12-28T04:26:19.822Z,23.19
2022-12-28T04:28:53.453Z,23.17
2022-12-28T04:31:46.716Z,22.89
2022-12-28T04:34:21.033Z,23.18
2022-12-28T04:37:06.290Z,23.16
2022-12-28T04:39:56.116Z,22.58
2022-12-28T04:42:27.772Z,22.60
2022-12-28T04:44:58.211Z,22.44
2022-12-28T04:47:28.275Z,22.32
2022-12-28T04:49:58.773Z,22.04
2022-12-28T04:52:28.822Z,22.00
2022-12-28T04:54:58.770Z,21.37
2022-12-28T04:57:29.301Z,21.21
2022-12-28T04:59:58.825Z,21.30
2022-12-28T05:02:28.629Z,21.07
2022-12-28T05:04:59.242Z,21.17
2022-12-28T05:07:29.251Z,21.24
2022-12-28T05:09:59.689Z,21.47
2022-12-28T05:12:31.959Z,21.39
2022-12-28T05:15:02.306Z,21.45
2022-12-28T05:17:33.498Z,21.48
2022-12-28T05:20:05.174Z,21.43
2022-12-28T05:22:40.513Z,21.74
2022-12-28T05:25:12.806Z,22.04
2022-12-28T05:27:45.564Z,22.22
2022-12-28T05:30:16.131Z,22.30
2022-12-28T05:32:45.690Z,22.57
2022-12-28T05:35:15.521Z,22.42
2022-12-28T05:37:46.306Z,22.22
2022-12-28T05:40:15.906Z,22.42
2022-12-28T05:42:51.192Z,22.43
2022-12-28T05:45:22.300Z,22.54
2022-12-28T05:47:51.828Z,22.48
2022-12-28T05:50:24.811Z,21.97
2022-12-28T05:52:55.332Z,21.88
2022-12-28T05:55:24.912Z,22.02
2022-12-28T05:57:57.328Z,21.85
2022-12-28T06:00:27.816Z,22.02
2022-12-28T06:02:58.053Z,21.95
2022-12-28T06:05:28.715Z,21.88
2022-12-28T06:08:00.910Z,21.81
2022-12-28T06:10:31.476Z,21.91
2022-12-28T06:13:01.565Z,21.91
2022-12-28T06:15:32.047Z,21.82
2022-12-28T06:18:02.060Z,21.77
2022-12-28T06:20:32.621Z,21.72
2022-12-28T06:23:02.807Z,21.61
2022-12-28T06:25:33.492Z,21.70
2022-12-28T06:28:03.554Z,21.74
2022-12-28T06:30:34.052Z,21.72
2022-12-28T06:33:04.687Z,21.73
2022-12-28T06:35:36.181Z,21.70
2022-12-28T06:38:06.186Z,21.68
2022-12-28T06:41:11.174Z,21.84
2022-12-28T06:43:26.854Z,21.84
2022-12-28T06:45:59.405Z,21.96
2022-12-28T06:48:31.660Z,21.99
2022-12-28T06:51:02.742Z,22.23
2022-12-28T06:53:38.320Z,22.34
2022-12-28T06:56:14.429Z,22.37
2022-12-28T06:58:45.764Z,22.42
2022-12-28T07:01:22.815Z,22.39
2022-12-28T07:03:55.654Z,22.37
2022-12-28T07:06:28.875Z,22.41
2022-12-28T07:09:05.139Z,22.37
2022-12-28T07:11:36.029Z,22.52
2022-12-28T07:14:06.869Z,22.55
2022-12-28T07:19:05.249Z,22.50
2022-12-28T07:21:38.468Z,22.11
2022-12-28T07:24:09.664Z,22.54
2022-12-28T07:26:40.507Z,22.57
2022-12-28T07:29:10.870Z,22.57
2022-12-28T07:31:45.850Z,22.43
2022-12-28T07:34:18.907Z,22.53
2022-12-28T07:36:51.161Z,22.50
2022-12-28T07:39:21.180Z,22.48
2022-12-28T07:41:51.782Z,22.42
2022-12-28T07:44:29.879Z,22.52
2022-12-28T07:47:01.305Z,22.52
2022-12-28T07:49:31.459Z,22.47
2022-12-28T07:52:01.935Z,22.42
2022-12-28T07:54:31.956Z,22.42
2022-12-28T07:57:02.443Z,22.46
2022-12-28T07:59:32.535Z,22.57
2022-12-28T08:02:03.420Z,22.40
2022-12-28T08:04:33.607Z,22.51
2022-12-28T08:07:04.124Z,22.28
2022-12-28T08:09:34.350Z,22.12
2022-12-28T08:12:05.075Z,22.32
2022-12-28T08:14:35.133Z,22.28
2022-12-28T08:17:05.718Z,22.42
2022-12-28T08:19:36.152Z,22.33
2022-12-28T08:22:06.694Z,22.50
2022-12-28T08:24:36.841Z,22.38
2022-12-28T08:27:07.352Z,22.56
2022-12-28T08:29:37.006Z,22.57
2022-12-28T08:32:07.888Z,22.54
2022-12-28T08:34:37.942Z,22.60
2022-12-28T08:37:08.589Z,22.65
2022-12-28T08:39:41.487Z,22.65
2022-12-28T08:42:12.069Z,22.54
2022-12-28T08:44:42.147Z,22.71
2022-12-28T08:47:12.806Z,22.58
2022-12-28T08:49:42.378Z,22.34
2022-12-28T08:52:13.221Z,22.42
2022-12-28T08:54:43.857Z,22.59
2022-12-28T08:57:13.473Z,22.75
2022-12-28T08:59:43.249Z,22.72
2022-12-28T09:02:15.298Z,22.70
2022-12-28T09:04:46.282Z,22.53
2022-12-28T09:07:18.344Z,22.71
2022-12-28T09:09:49.989Z,22.69
2022-12-28T09:12:21.525Z,22.66
2022-12-28T09:14:51.047Z,22.70
2022-12-28T09:17:21.478Z,22.49
2022-12-28T09:19:53.654Z,22.60
2022-12-28T09:22:24.161Z,22.61
2022-12-28T09:24:54.252Z,22.66
2022-12-28T09:27:25.001Z,22.74
2022-12-28T09:29:54.951Z,22.79
2022-12-28T09:32:25.365Z,22.67
2022-12-28T09:34:56.118Z,22.66
2022-12-28T09:37:27.844Z,22.89
2022-12-28T09:40:01.382Z,23.22
2022-12-28T09:42:33.228Z,23.29
2022-12-28T09:45:13.752Z,23.34
2022-12-28T09:47:48.759Z,23.12
2022-12-28T09:50:19.602Z,22.89
2022-12-28T09:53:19.385Z,22.71
2022-12-28T09:56:37.805Z,22.56
2022-12-28T09:59:12.010Z,22.91
2022-12-28T10:01:44.452Z,23.63
2022-12-28T10:04:15.740Z,24.01
2022-12-28T10:06:45.853Z,24.43
2022-12-28T10:09:31.637Z,24.20
2022-12-28T10:12:07.450Z,24.21
2022-12-28T10:14:38.180Z,24.25
2022-12-28T10:17:10.678Z,24.66
2022-12-28T10:19:41.417Z,24.88
2022-12-28T10:22:18.207Z,24.81
2022-12-28T10:24:49.607Z,24.87
2022-12-28T10:27:24.169Z,24.50
2022-12-28T10:29:56.250Z,24.63
2022-12-28T10:32:26.373Z,24.34
2022-12-28T10:35:02.017Z,24.00
2022-12-28T10:37:38.303Z,23.65
2022-12-28T10:40:26.297Z,23.45
2022-12-28T10:42:58.080Z,22.94
2022-12-28T10:45:37.318Z,22.56
2022-12-28T10:48:18.308Z,22.70
2022-12-28T10:50:52.206Z,22.41
2022-12-28T10:53:29.888Z,22.45
2022-12-28T10:56:17.333Z,22.61
2022-12-28T10:58:53.086Z,22.17
2022-12-28T11:01:31.483Z,22.18
2022-12-28T11:04:05.483Z,22.28
2022-12-28T11:06:52.726Z,22.34
2022-12-28T11:09:29.470Z,22.29
2022-12-28T11:12:25.886Z,22.47
2022-12-28T11:14:57.347Z,22.47
2022-12-28T11:17:29.960Z,22.28
2022-12-28T11:20:10.571Z,21.84
2022-12-28T11:22:41.064Z,21.77
2022-12-28T11:25:14.474Z,21.77
2022-12-28T11:27:47.150Z,22.16
2022-12-28T11:30:21.376Z,22.29
2022-12-28T11:33:08.135Z,22.35
2022-12-28T11:35:41.885Z,21.92
2022-12-28T11:38:33.483Z,21.97
2022-12-28T11:41:03.535Z,21.77
2022-12-28T11:43:40.857Z,21.88
2022-12-28T11:46:23.208Z,21.65
2022-12-28T11:49:00.496Z,21.54
2022-12-28T11:51:30.592Z,21.29
2022-12-28T11:54:05.389Z,21.48
2022-12-28T11:56:38.192Z,21.44
2022-12-28T11:59:25.768Z,21.33
2022-12-28T12:02:26.122Z,21.12
2022-12-28T12:04:56.788Z,21.11
2022-12-28T12:07:48.112Z,20.90
2022-12-28T12:10:39.595Z,20.56
2022-12-28T12:13:28.152Z,20.79
2022-12-28T12:15:58.696Z,20.67
2022-12-28T12:18:31.194Z,20.75
2022-12-28T12:21:11.576Z,20.54
2022-12-28T12:23:59.155Z,20.59
2022-12-28T12:26:35.848Z,20.69
2022-12-28T12:29:20.064Z,20.96
2022-12-28T12:32:05.565Z,21.48
2022-12-28T12:34:56.397Z,21.77
2022-12-28T12:37:53.767Z,21.83
2022-12-28T12:40:39.780Z,22.00
2022-12-28T12:43:31.500Z,22.42
2022-12-28T12:46:07.701Z,22.41
2022-12-28T12:49:08.522Z,22.26
2022-12-28T12:52:07.569Z,22.14
2022-12-28T12:54:50.882Z,22.01
2022-12-28T12:57:51.391Z,22.55
2022-12-28T13:00:25.602Z,22.54
2022-12-28T13:03:18.297Z,22.72
2022-12-28T13:05:54.353Z,23.07
2022-12-28T13:08:49.558Z,23.08
2022-12-28T13:11:21.551Z,23.48
2022-12-28T13:13:54.358Z,24.11
2022-12-28T13:16:30.065Z,24.01
2022-12-28T13:19:06.115Z,24.40
2022-12-28T13:21:45.845Z,24.91
2022-12-28T13:24:27.428Z,25.37
2022-12-28T13:26:59.753Z,26.28
2022-12-28T13:29:36.084Z,26.54
2022-12-28T13:32:06.388Z,26.60
2022-12-28T13:34:38.801Z,26.47
2022-12-28T13:37:18.745Z,25.97
2022-12-28T13:39:49.676Z,25.93
2022-12-28T13:42:33.729Z,26.53
2022-12-28T13:45:06.299Z,26.28
2022-12-28T13:47:41.628Z,26.31
2022-12-28T13:50:26.721Z,26.95
2022-12-28T13:53:17.466Z,26.70
2022-12-28T13:55:59.139Z,26.27
2022-12-28T13:58:39.605Z,25.46
2022-12-28T14:01:21.418Z,24.74
2022-12-28T14:03:52.502Z,24.11
2022-12-28T14:06:23.624Z,23.93
2022-12-28T14:08:53.972Z,23.66
2022-12-28T14:11:25.091Z,23.43
2022-12-28T14:13:56.607Z,22.98
2022-12-28T14:16:27.933Z,22.91
2022-12-28T14:18:58.785Z,23.07
2022-12-28T14:21:42.067Z,22.82
2022-12-28T14:24:15.066Z,22.61
2022-12-28T14:26:55.412Z,22.74
2022-12-28T14:29:30.335Z,22.78
2022-12-28T14:32:08.139Z,22.37
2022-12-28T14:34:40.150Z,22.27
2022-12-28T14:37:29.669Z,22.87
2022-12-28T14:40:07.000Z,22.91
2022-12-28T14:42:37.543Z,22.43
2022-12-28T14:46:06.930Z,22.71
2022-12-28T14:48:38.771Z,22.63
2022-12-28T14:51:39.754Z,22.37
2022-12-28T14:54:27.433Z,22.06
2022-12-28T14:57:07.856Z,21.41
2022-12-28T14:59:41.674Z,21.06
2022-12-28T15:02:37.291Z,21.33
2022-12-28T15:05:46.940Z,21.30
2022-12-28T15:08:17.068Z,21.34
2022-12-28T15:10:54.019Z,21.69
2022-12-28T15:13:26.154Z,21.55
2022-12-28T15:16:02.268Z,22.04
2022-12-28T15:18:34.311Z,22.07
2022-12-28T15:21:06.766Z,22.05
2022-12-28T15:23:36.924Z,22.40
2022-12-28T15:26:14.880Z,22.58
2022-12-28T15:28:45.149Z,22.72
2022-12-28T15:31:19.044Z,22.59
2022-12-28T15:33:49.775Z,22.54
2022-12-28T15:36:22.371Z,22.88
2022-12-28T15:38:52.758Z,22.90
2022-12-28T15:41:42.232Z,22.87
2022-12-28T15:44:13.411Z,22.56
2022-12-28T15:46:44.398Z,22.73
2022-12-28T15:49:16.032Z,22.28
2022-12-28T15:51:47.689Z,22.46
2022-12-28T15:54:22.994Z,22.09
2022-12-28T15:56:55.887Z,22.05
2022-12-28T15:59:27.863Z,22.31
2022-12-28T16:01:58.823Z,22.20
2022-12-28T16:04:29.104Z,22.17
2022-12-28T16:07:02.743Z,22.50
2022-12-28T16:09:32.840Z,22.54
2022-12-28T16:12:02.777Z,22.41
2022-12-28T16:14:36.957Z,22.49
2022-12-28T16:17:09.177Z,22.25
2022-12-28T16:19:39.724Z,21.96
2022-12-28T16:22:09.581Z,22.33
2022-12-28T16:24:40.001Z,23.14
2022-12-28T16:27:10.715Z,24.22
2022-12-28T16:29:41.463Z,25.36
2022-12-28T16:33:20.268Z,26.42
2022-12-28T16:35:55.934Z,28.11
2022-12-28T16:38:31.050Z,28.08
2022-12-28T16:41:02.152Z,27.44
2022-12-28T16:43:32.709Z,26.92
2022-12-28T16:46:08.173Z,26.44
2022-12-28T16:48:39.340Z,27.04
2022-12-28T16:51:09.846Z,28.39
2022-12-28T16:53:40.384Z,28.48
2022-12-28T16:56:11.979Z,28.63
2022-12-28T16:58:46.101Z,28.03
2022-12-28T17:01:19.656Z,28.04
2022-12-28T17:03:49.911Z,27.36
2022-12-28T17:06:19.925Z,27.79
2022-12-28T17:08:50.586Z,27.99
2022-12-28T17:11:20.839Z,28.13
2022-12-28T17:13:51.518Z,28.42
2022-12-28T17:16:23.163Z,28.98
2022-12-28T17:18:53.789Z,29.08
2022-12-28T17:21:23.876Z,29.56
2022-12-28T17:23:53.881Z,30.98
2022-12-28T17:26:25.816Z,31.32
2022-12-28T17:28:55.968Z,32.39
2022-12-28T17:31:26.801Z,31.13
2022-12-28T17:34:02.446Z,31.18
2022-12-28T17:36:32.992Z,32.06
2022-12-28T17:39:06.019Z,32.51
2022-12-28T17:41:36.706Z,32.75
2022-12-28T17:44:06.904Z,32.54
2022-12-28T17:46:41.883Z,32.69
2022-12-28T17:49:17.046Z,33.08
2022-12-28T17:51:47.496Z,32.29
2022-12-28T17:54:18.162Z,32.84
2022-12-28T17:56:48.653Z,32.27
2022-12-28T17:59:19.056Z,32.48
2022-12-28T18:01:49.685Z,32.81
2022-12-28T18:04:20.081Z,32.33
2022-12-28T18:06:53.687Z,31.64
2022-12-28T18:09:27.583Z,30.75
2022-12-28T18:11:58.764Z,29.85
2022-12-28T18:14:32.832Z,29.57
2022-12-28T18:17:03.580Z,29.49
2022-12-28T18:19:33.749Z,30.42
2022-12-28T18:22:04.388Z,31.44
2022-12-28T18:24:34.550Z,32.17
2022-12-28T18:27:05.028Z,32.97
2022-12-28T18:29:35.198Z,33.00
2022-12-28T18:32:06.011Z,32.91
2022-12-28T18:34:36.212Z,32.62
2022-12-28T18:37:06.785Z,32.42
2022-12-28T18:39:37.411Z,32.49
2022-12-28T18:42:08.676Z,32.15
2022-12-28T18:44:39.729Z,31.77
2022-12-28T18:47:10.224Z,32.27
2022-12-28T18:49:51.819Z,31.94
2022-12-28T18:52:22.311Z,31.93
2022-12-28T18:54:58.495Z,31.62
2022-12-28T18:57:34.061Z,31.72
2022-12-28T19:00:05.552Z,32.78
2022-12-28T19:02:39.470Z,32.99
2022-12-28T19:05:13.504Z,33.65
2022-12-28T19:07:52.070Z,33.18
2022-12-28T19:10:35.587Z,33.30
2022-12-28T19:13:11.825Z,33.08
2022-12-28T19:15:44.844Z,32.91
2022-12-28T19:18:24.883Z,32.86
2022-12-28T19:21:21.445Z,31.55
2022-12-28T19:24:13.899Z,30.88
2022-12-28T19:26:49.833Z,30.55
2022-12-28T19:29:26.596Z,29.90
2022-12-28T19:31:57.074Z,29.90
2022-12-28T19:34:50.514Z,29.68
2022-12-28T19:37:23.612Z,30.23
2022-12-28T19:39:57.791Z,31.04
2022-12-28T19:42:35.097Z,32.13
2022-12-28T19:45:12.971Z,32.52
2022-12-28T19:47:43.784Z,32.62
2022-12-28T19:50:27.278Z,32.79
2022-12-28T19:53:00.146Z,32.95
2022-12-28T19:55:36.238Z,33.07
2022-12-28T19:58:10.669Z,33.13
2022-12-28T20:00:56.188Z,33.23
2022-12-28T20:03:26.324Z,33.29
2022-12-28T20:06:12.453Z,33.47
2022-12-28T20:08:50.784Z,33.04
2022-12-28T20:11:24.848Z,32.64
2022-12-28T20:17:01.561Z,33.08
2022-12-28T20:19:44.588Z,32.12
2022-12-28T20:22:27.132Z,32.71
2022-12-28T20:25:08.664Z,33.60
2022-12-28T20:27:39.580Z,33.80
2022-12-28T20:30:10.780Z,34.43
2022-12-28T20:32:47.702Z,34.64
2022-12-28T20:35:21.465Z,34.82
2022-12-28T20:38:04.244Z,35.26
2022-12-28T20:40:47.101Z,35.38
2022-12-28T20:55:56.845Z,32.98
2022-12-28T20:58:30.647Z,32.90
2022-12-28T21:01:17.455Z,33.05
2022-12-28T21:03:51.201Z,33.18
2022-12-28T21:06:21.488Z,33.62
2022-12-28T21:08:59.133Z,33.06
2022-12-28T21:11:32.104Z,33.14
2022-12-28T21:14:05.715Z,33.20
2022-12-28T21:16:39.688Z,33.50
2022-12-28T21:19:13.420Z,33.71
2022-12-28T21:21:44.128Z,33.80
2022-12-28T21:24:16.385Z,33.83
2022-12-28T21:26:47.221Z,33.62
2022-12-28T21:29:25.603Z,32.79
2022-12-28T21:32:03.759Z,32.88
2022-12-28T21:34:37.447Z,32.51
2022-12-28T21:37:30.433Z,32.63
2022-12-28T21:40:09.135Z,32.63
2022-12-28T21:42:49.290Z,32.57
2022-12-28T21:45:23.151Z,32.42
2022-12-28T21:47:59.816Z,32.37
2022-12-28T21:50:32.321Z,32.16
2022-12-28T21:53:11.507Z,31.96
2022-12-28T21:55:47.607Z,31.75
2022-12-28T21:58:26.495Z,31.45
2022-12-28T22:01:19.031Z,31.09
2022-12-28T22:04:18.328Z,30.77
2022-12-28T22:06:48.960Z,30.34
2022-12-28T22:09:41.903Z,30.07
2022-12-28T22:12:39.852Z,29.64
2022-12-28T22:15:47.328Z,29.08
2022-12-28T22:21:25.452Z,27.47
2022-12-28T22:24:22.639Z,26.72
2022-12-28T22:29:57.631Z,26.03
2022-12-28T22:32:41.248Z,25.87
2022-12-28T22:35:17.907Z,25.69
2022-12-28T22:37:48.006Z,25.54
2022-12-28T22:40:31.537Z,25.46
2022-12-28T22:43:14.882Z,25.35
2022-12-28T22:45:51.548Z,25.14
2022-12-28T22:48:29.641Z,24.98
2022-12-28T22:51:13.131Z,24.78
2022-12-28T22:53:54.343Z,24.77
2022-12-28T22:56:24.831Z,24.50
2022-12-28T22:58:55.248Z,24.18
2022-12-28T23:01:40.797Z,23.98
2022-12-28T23:04:14.350Z,23.55
2022-12-28T23:06:44.975Z,23.56
2022-12-28T23:09:27.216Z,23.46
2022-12-28T23:12:00.921Z,23.30
2022-12-28T23:14:49.535Z,23.32
2022-12-28T23:17:42.948Z,23.29
2022-12-28T23:23:42.029Z,22.86
2022-12-28T23:26:37.153Z,23.08
2022-12-28T23:29:17.157Z,23.01
2022-12-28T23:31:50.100Z,22.91
2022-12-28T23:34:26.788Z,22.97
2022-12-28T23:37:02.443Z,23.02
2022-12-28T23:39:42.547Z,22.81
2022-12-28T23:42:15.512Z,21.86
2022-12-28T23:44:53.524Z,22.05
2022-12-28T23:47:26.872Z,21.85
2022-12-28T23:49:57.540Z,21.81
2022-12-28T23:52:30.627Z,21.87
2022-12-28T23:55:13.395Z,21.89
2022-12-28T23:58:03.667Z,21.89
